Latest Weather Observations for Julia Creek

IDQ60801

Issued at 8:35 am EST Thursday 28 August 2014 (issued every 30 minutes, with the page automatically refreshed every 10 minutes)

About weather observations | Map of weather stations | Latest weather observations for QLD | Other Formats
Station Details ID: 029058 Name: JULIA CREEK AIRPORT Lat: -20.67 Lon: 141.72 Height: 122.5 m
Data from the previous 72 hours. | See also: Recent months at Julia Creek
Date/Time
EST
Temp
°C
App
Temp
°C
Dew
Point
Rel
Hum
%
Delta-T
°C
Wind Press
QNH
hPa
Press
MSL
hPa
Rain
since 9 am
mm
Dir
 
Spd
km/h
Gust
km/h
Spd
kts
Gust
kts
28/08:30am 17.5 10.6 0.2 31 7.5 ESE 26 33 14 18 1020.9 1020.6 0.0
28/08:00am 14.8 7.8 -0.5 35 6.4 SE 26 32 14 17 1020.5 1020.2 0.0
28/07:30am 12.0 5.9 -2.6 36 5.7 SSE 20 24 11 13 1020.1 1019.8 0.0
28/07:00am 9.7 3.9 -4.3 37 5.1 SSE 17 19 9 10 1019.8 1019.5 0.0
28/06:30am 9.8 4.4 -4.2 37 5.1 SE 15 19 8 10 1019.6 1019.3 0.0
28/06:00am 8.9 3.8 -5.0 37 4.9 SE 13 15 7 8 1019.2 1018.9 0.0
28/05:30am 6.8 1.2 -6.5 38 4.4 SSE 15 15 8 8 1018.8 1018.5 0.0
28/05:00am 7.5 2.6 -6.6 36 4.7 SSE 11 13 6 7 1018.7 1018.4 0.0
28/04:30am 8.8 4.3 -6.6 33 5.2 SE 9 11 5 6 1018.7 1018.4 0.0
28/04:00am 10.9 5.8 -5.1 32 5.8 SE 13 15 7 8 1018.5 1018.2 0.0
28/03:30am 10.7 5.2 -5.7 31 5.8 SSE 15 17 8 9 1018.4 1018.1 0.0
28/03:00am 9.9 4.6 -6.8 30 5.7 SSE 13 15 7 8 1018.7 1018.4 0.0
28/02:30am 11.4 5.8 -6.0 29 6.2 SSE 15 17 8 9 1018.9 1018.6 0.0
28/02:00am 11.6 6.4 -6.3 28 6.3 SSE 13 17 7 9 1019.2 1018.9 0.0
28/01:30am 11.8 5.8 -7.1 26 6.6 SSE 17 19 9 10 1019.3 1019.0 0.0
28/01:00am 12.2 6.2 -6.7 26 6.7 SSE 17 19 9 10 1019.4 1019.1 0.0
28/12:30am 13.0 7.0 -6.5 25 7.0 SSE 17 19 9 10 1019.4 1019.1 0.0
28/12:00am 12.7 6.7 -6.8 25 6.9 SSE 17 19 9 10 1019.4 1019.1 0.0
 
Date/Time
EST
Temp
°C
App
Temp
°C
Dew
Point
Rel
Hum
%
Delta-T
°C
Wind Press
QNH
hPa
Press
MSL
hPa
Rain
since 9 am
mm
Dir
 
Spd
km/h
Gust
km/h
Spd
kts
Gust
kts
27/11:30pm 12.9 7.2 -7.2 24 7.1 SSE 15 17 8 9 1019.6 1019.3 0.0
27/11:00pm 13.0 7.0 -7.1 24 7.1 SSE 17 19 9 10 1019.6 1019.3 0.0
27/10:30pm 12.2 6.9 -7.7 24 6.9 S 13 15 7 8 1019.8 1019.5 0.0
27/10:00pm 12.1 6.7 -8.9 22 7.1 ESE 13 13 7 7 1019.7 1019.4 0.0
27/09:30pm 13.9 9.0 -7.4 22 7.6 ESE 11 13 6 7 1019.6 1019.3 0.0
27/09:00pm 13.6 7.8 -8.3 21 7.6 SE 15 17 8 9 1019.3 1019.0 0.0
27/08:30pm 15.8 10.5 -7.1 20 8.4 SE 13 15 7 8 1018.9 1018.6 0.0
27/08:00pm 17.9 12.3 -6.7 18 9.3 SE 15 17 8 9 1018.6 1018.3 0.0
27/07:30pm 19.3 13.7 -6.3 17 9.9 SSE 15 17 8 9 1018.1 1017.8 0.0
27/07:00pm 20.6 15.0 -6.1 16 10.5 SSE 15 17 8 9 1017.7 1017.4 0.0
27/06:30pm 22.9 16.6 -6.0 14 11.7 SSE 19 24 10 13 1017.4 1017.1 0.0
27/06:00pm 24.8 17.6 -5.5 13 12.6 SSE 24 32 13 17 1017.0 1016.7 0.0
27/05:30pm 25.8 18.2 -5.7 12 13.2 SSE 26 33 14 18 1016.9 1016.6 0.0
27/05:00pm 26.4 18.7 -6.4 11 13.6 SSE 26 33 14 18 1016.7 1016.4 0.0
27/04:30pm 26.5 19.2 -6.3 11 13.7 SSE 24 33 13 18 1016.6 1016.3 0.0
27/04:00pm 27.2 20.7 -5.8 11 14.0 SSE 20 33 11 18 1016.6 1016.3 0.0
27/03:30pm 26.6 19.3 -6.2 11 13.7 SE 24 39 13 21 1016.8 1016.5 0.0
27/03:00pm 26.5 19.7 -5.2 12 13.5 SSE 22 32 12 17 1016.8 1016.5 0.0
27/02:30pm 27.3 20.6 -4.6 12 13.8 SSE 22 35 12 19 1017.2 1016.9 0.0
27/02:00pm 26.4 19.8 -3.2 14 13.0 SSE 22 30 12 16 1017.5 1017.2 0.0
27/01:30pm 25.8 19.3 -2.8 15 12.6 SSE 22 28 12 15 1018.1 1017.8 0.0
27/01:00pm 25.8 19.6 -2.8 15 12.6 SE 20 30 11 16 1018.6 1018.3 0.0
27/12:30pm 24.2 17.2 -3.2 16 11.9 SE 24 37 13 20 1019.2 1018.9 0.0
27/12:00pm 23.8 16.1 -2.7 17 11.5 SE 28 39 15 21 1019.8 1019.5 0.0
27/11:30am 23.0 15.4 -1.8 19 10.9 SE 28 37 15 20 1020.2 1019.9 0.0
27/11:00am 22.7 14.8 -1.4 20 10.6 SE 30 41 16 22 1020.8 1020.5 0.0
27/10:30am 21.2 13.7 -1.3 22 9.8 ESE 28 37 15 20 1021.4 1021.1 0.0
27/10:00am 20.1 12.9 -1.7 23 9.3 ESE 26 33 14 18 1021.6 1021.3 0.0
27/09:30am 18.2 11.2 -3.8 22 8.9 ESE 24 30 13 16 1021.7 1021.4 0.0
27/09:00am 16.1 8.6 -4.4 24 8.0 ESE 26 32 14 17 1021.5 1021.2 0.0
27/08:30am 13.8 6.4 -6.9 23 7.5 SE 24 32 13 17 1021.3 1021.0 0.0
27/08:00am 11.6 6.2 -8.3 24 6.7 SE 13 19 7 10 1021.0 1020.7 0.0
27/07:30am 7.4 2.6 -10.3 27 5.4 SE 9 13 5 7 1020.6 1020.3 0.0
27/07:00am 5.9 0.3 -11.2 28 5.0 SE 13 15 7 8 1019.9 1019.6 0.0
27/06:30am 5.0 -0.6 -11.1 30 4.6 SE 13 15 7 8 1019.5 1019.2 0.0
27/06:00am 5.0 -0.7 -12.0 28 4.8 SE 13 13 7 7 1019.3 1019.0 0.0
27/05:30am 5.4 0.1 -12.1 27 4.9 SE 11 13 6 7 1018.9 1018.6 0.0
27/05:00am 6.5 1.6 -12.6 24 5.4 SE 9 13 5 7 1018.9 1018.6 0.0
27/04:30am 7.6 1.9 -12.2 23 5.8 SSE 13 15 7 8 1018.6 1018.3 0.0
27/04:00am 8.3 1.8 -12.7 21 6.1 S 17 19 9 10 1018.4 1018.1 0.0
27/03:30am 8.8 2.7 -12.3 21 6.3 S 15 17 8 9 1018.6 1018.3 0.0
27/03:00am 9.1 3.4 -12.0 21 6.3 SSE 13 17 7 9 1018.7 1018.4 0.0
27/02:30am 9.4 3.7 -11.8 21 6.4 SSE 13 15 7 8 1018.7 1018.4 0.0
27/02:00am 10.2 4.2 -11.1 21 6.6 SSE 15 19 8 10 1018.7 1018.4 0.0
27/01:30am 10.5 3.8 -10.9 21 6.7 S 19 20 10 11 1018.6 1018.3 0.0
27/01:00am 9.2 2.9 -10.3 24 6.1 S 17 19 9 10 1018.8 1018.5 0.0
27/12:30am 9.1 3.2 -9.4 26 5.9 SSE 15 17 8 9 1018.9 1018.6 0.0
27/12:00am 9.9 4.1 -9.2 25 6.2 SSE 15 15 8 8 1019.0 1018.7 0.0
 
Date/Time
EST
Temp
°C
App
Temp
°C
Dew
Point
Rel
Hum
%
Delta-T
°C
Wind Press
QNH
hPa
Press
MSL
hPa
Rain
since 9 am
mm
Dir
 
Spd
km/h
Gust
km/h
Spd
kts
Gust
kts
26/11:30pm 11.6 6.2 -8.8 23 6.8 SSE 13 17 7 9 1019.1 1018.8 0.0
26/11:00pm 11.7 6.3 -8.7 23 6.9 SSE 13 15 7 8 1019.1 1018.8 0.0
26/10:30pm 12.7 7.0 -7.9 23 7.2 SSE 15 17 8 9 1019.1 1018.8 0.0
26/10:00pm 14.3 8.9 -8.3 20 7.9 SE 13 15 7 8 1019.0 1018.7 0.0
26/09:30pm 16.6 10.6 -7.1 19 8.8 SSE 17 19 9 10 1018.7 1018.4 0.0
26/09:00pm 16.5 10.9 -6.5 20 8.6 SSE 15 17 8 9 1018.3 1018.0 0.0
26/08:30pm 16.4 10.9 -5.3 22 8.3 SSE 15 19 8 10 1018.1 1017.8 0.0
26/08:00pm 16.5 10.9 -6.5 20 8.6 SSE 15 15 8 8 1017.7 1017.4 0.0
26/07:30pm 19.8 14.4 -4.5 19 9.8 SSE 15 19 8 10 1017.2 1016.9 0.0
26/07:00pm 20.9 15.8 -5.0 17 10.5 SSE 13 15 7 8 1016.9 1016.6 0.0
26/06:30pm 24.0 18.2 -4.2 15 12.0 SSE 17 24 9 13 1016.5 1016.2 0.0
26/06:00pm 26.2 19.9 -4.4 13 13.2 SSE 20 26 11 14 1016.2 1015.8 0.0
26/05:30pm 27.2 20.2 -3.6 13 13.6 SSE 24 33 13 18 1016.1 1015.7 0.0
26/05:00pm 28.3 21.0 -2.7 13 14.0 SSE 26 33 14 18 1015.9 1015.5 0.0
26/04:30pm 28.4 20.4 -2.6 13 14.0 SSE 30 37 16 20 1015.9 1015.5 0.0
26/04:00pm 28.3 20.6 -2.7 13 14.0 SSE 28 33 15 18 1016.0 1015.6 0.0
26/03:30pm 28.7 21.1 -2.4 13 14.2 S 28 33 15 18 1016.1 1015.7 0.0
26/03:00pm 28.8 22.6 -0.4 15 13.8 S 22 32 12 17 1016.3 1015.9 0.0
26/02:30pm 28.2 21.5 -0.9 15 13.6 SSE 24 41 13 22 1016.6 1016.3 0.0
26/02:00pm 28.5 22.0 0.3 16 13.4 SSE 24 37 13 20 1017.1 1016.8 0.0
26/01:30pm 27.9 20.9 -0.2 16 13.2 SSE 26 35 14 19 1017.6 1017.3 0.0
26/01:00pm 27.0 20.4 -0.1 17 12.7 SSE 24 35 13 19 1018.0 1017.7 0.0
26/12:30pm 27.2 21.2 0.8 18 12.6 SE 22 35 12 19 1018.7 1018.4 0.0
26/12:00pm 26.1 19.7 0.7 19 12.0 SE 24 37 13 20 1019.3 1019.0 0.0
26/11:30am 25.7 19.6 0.4 19 11.9 SE 22 35 12 19 1019.9 1019.6 0.0
26/11:00am 26.0 19.0 2.0 21 11.6 SE 28 46 15 25 1020.3 1020.0 0.0
26/10:30am 24.6 16.9 2.1 23 10.8 SE 32 43 17 23 1020.6 1020.3 0.0
26/10:00am 23.4 16.1 2.3 25 10.0 SE 30 39 16 21 1020.8 1020.5 0.0
26/09:30am 21.4 13.7 2.2 28 9.0 SE 32 41 17 22 1020.9 1020.6 0.0
26/09:00am 19.8 13.1 1.7 30 8.3 SE 26 33 14 18 1020.9 1020.6 0.0
26/08:30am 18.4 11.2 1.0 31 7.8 SE 28 37 15 20 1020.8 1020.5 0.0
26/08:00am 15.5 9.7 -0.3 34 6.7 SSE 20 26 11 14 1020.5 1020.2 0.0
26/07:30am 13.4 8.0 -1.0 37 5.9 SSE 17 22 9 12 1020.1 1019.8 0.0
26/07:00am 11.8 6.8 -1.0 41 5.1 SSE 15 19 8 10 1019.6 1019.3 0.0
26/06:30am 11.9 6.5 -1.3 40 5.3 SSE 17 20 9 11 1019.2 1018.9 0.0
26/06:00am 10.5 5.4 -1.9 42 4.8 SSE 15 17 8 9 1019.0 1018.7 0.0
26/05:30am 10.4 5.2 -2.6 40 5.0 SSE 15 17 8 9 1018.7 1018.4 0.0
26/05:00am 10.3 5.5 -2.7 40 4.9 SSE 13 15 7 8 1018.5 1018.2 0.0
26/04:30am 10.8 6.0 -2.9 38 5.2 SSE 13 15 7 8 1018.3 1018.0 0.0
26/04:00am 12.1 6.5 -2.5 36 5.7 SSE 17 19 9 10 1018.4 1018.1 0.0
26/03:30am 12.3 7.1 -2.7 35 5.8 SSE 15 19 8 10 1018.5 1018.2 0.0
26/03:00am 13.3 7.8 -2.2 34 6.2 SSE 17 22 9 12 1018.6 1018.3 0.0
26/02:30am 15.1 9.1 -1.9 31 6.9 SSE 20 24 11 13 1018.9 1018.6 0.0
26/02:00am 14.7 8.9 -1.8 32 6.7 SSE 19 24 10 13 1018.9 1018.6 0.0
26/01:30am 14.7 9.2 -1.8 32 6.7 SSE 17 22 9 12 1019.0 1018.7 0.0
26/01:00am 16.4 10.7 -0.8 31 7.3 SSE 19 22 10 12 1019.1 1018.8 0.0
26/12:30am 14.8 9.4 -1.3 33 6.6 SSE 17 20 9 11 1019.3 1019.0 0.0
26/12:00am 15.8 10.8 -1.3 31 7.1 SSE 15 19 8 10 1019.4 1019.1 0.0
 
Date/Time
EST
Temp
°C
App
Temp
°C
Dew
Point
Rel
Hum
%
Delta-T
°C
Wind Press
QNH
hPa
Press
MSL
hPa
Rain
since 9 am
mm
Dir
 
Spd
km/h
Gust
km/h
Spd
kts
Gust
kts
25/11:30pm 17.3 12.0 -0.4 30 7.6 SE 17 20 9 11 1019.6 1019.3 0.0
25/11:00pm 17.9 12.6 -0.4 29 7.9 SE 17 20 9 11 1019.6 1019.3 0.0
25/10:30pm 17.9 12.2 -0.4 29 7.9 SSE 19 20 10 11 1019.5 1019.2 0.0
25/10:00pm 18.2 13.0 -0.1 29 8.0 SSE 17 19 9 10 1019.6 1019.3 0.0
25/09:30pm 18.8 14.0 0.4 29 8.2 SSE 15 19 8 10 1019.4 1019.1 0.0
25/09:00pm 19.7 14.6 0.7 28 8.5 SSE 17 19 9 10 1019.3 1019.0 0.0
25/08:30pm 21.0 15.9 0.8 26 9.2 SSE 17 20 9 11 1019.1 1018.8 0.0
25/08:00pm 22.7 17.1 1.1 24 10.0 SSE 20 26 11 14 1018.8 1018.5 0.0
25/07:30pm 23.2 17.8 1.5 24 10.2 SSE 19 24 10 13 1018.5 1018.2 0.0
25/07:00pm 24.2 18.8 2.4 24 10.5 SSE 20 28 11 15 1018.1 1017.8 0.0
25/06:30pm 25.4 18.9 2.8 23 11.0 SE 26 35 14 19 1017.8 1017.5 0.0
25/06:00pm 26.4 19.2 3.0 22 11.5 SE 30 39 16 21 1017.6 1017.3 0.0
25/05:30pm 27.4 19.9 3.2 21 12.1 SE 32 43 17 23 1017.2 1016.9 0.0
25/05:00pm 27.8 19.9 4.2 22 12.0 SSE 35 48 19 26 1017.0 1016.7 0.0
25/04:30pm 28.3 21.4 4.6 22 12.2 SE 30 43 16 23 1016.9 1016.6 0.0
25/04:02pm 29.0 22.2 5.1 22 12.4 SE 30 52 16 28 1016.9 1016.6 0.0
25/04:00pm 28.5 22.0 4.7 22 12.3 SE 28 43 15 23 1017.0 1016.7 0.0
25/03:49pm 28.8 22.4 5.0 22 12.4 SSE 28 48 15 26 1017.0 1016.7 0.0
25/03:30pm 28.6 21.4 4.8 22 12.3 SE 32 46 17 25 1017.2 1016.9 0.0
25/03:00pm 29.0 21.8 5.1 22 12.4 SE 32 46 17 25 1017.4 1017.1 0.0
25/02:32pm 28.8 22.5 5.6 23 12.2 SE 28 46 15 25 1017.6 1017.3 0.0
25/02:30pm 28.8 22.1 5.6 23 12.2 SE 30 46 16 25 1017.6 1017.3 0.0
25/02:00pm 29.1 22.5 5.9 23 12.2 SE 30 44 16 24 1018.0 1017.7 0.0
25/01:30pm 28.0 21.0 6.2 25 11.5 SE 32 48 17 26 1018.4 1018.1 0.0
25/01:07pm 28.6 22.4 6.1 24 11.9 SSE 28 50 15 27 1018.8 1018.5 0.0
25/01:00pm 27.8 20.8 6.0 25 11.4 SSE 32 48 17 26 1019.0 1018.7 0.0
25/12:30pm 27.5 20.1 5.1 24 11.6 SE 33 46 18 25 1019.6 1019.3 0.0
25/12:00pm 27.3 20.2 5.6 25 11.3 SE 32 46 17 25 1020.3 1020.0 0.0
25/11:30am 26.8 20.2 6.2 27 10.8 SE 30 43 16 23 1020.9 1020.6 0.0
25/11:00am 25.9 19.8 6.5 29 10.1 ESE 28 37 15 20 1021.3 1021.0 0.0
25/10:30am 25.0 18.0 6.2 30 9.7 SE 32 39 17 21 1021.7 1021.4 0.0
25/10:00am 23.5 16.9 5.9 32 9.0 SE 30 37 16 20 1022.0 1021.7 0.0
25/09:30am 21.7 14.3 5.2 34 8.2 ESE 33 44 18 24 1022.0 1021.7 0.0
25/09:00am 20.7 12.9 4.7 35 7.8 SE 35 46 19 25 1021.8 1021.5 0.0

Other Formats:

Comma delimited format used in spreadsheet applications
http://www.bom.gov.au/fwo/IDQ60801/IDQ60801.94337.axf

JavaScript Object Notation format (JSON) in row-major order
http://www.bom.gov.au/fwo/IDQ60801/IDQ60801.94337.json